OMA317 OOMS-VGHS
Flight info
| Callsign | OMA317 |
|---|---|
| Flight time | N/A |
| Altitude | 35000 |
| Route | MCT Q250 KIPOL N881 RASKI L639 RITPO/N0455F370 L639 BPL A791 CEA A462 DAC |
| Aircraft | A320/M-SDE3FGHIRWY/LB1 |
Departure
| Time | 2026-05-01 12:00 |
|---|---|
| Airport | Muscat International Airport (OOMS) |
Arrival
| Time | N/A |
|---|---|
| Airport | Hazrat Shahjalal International Airport (VGHS) |
| Time | Latitude | Longitude | Altitude | Speed | Heading |
|---|---|---|---|---|---|
| 2026-05-01 11:20 | 23.59995 | 58.28603 | 38 ft | 0 kts | 39° |
| 2026-05-01 11:40 | 23.59988 | 58.28597 | 38 ft | 4 kts | 39° |
| 2026-05-01 11:41 | 23.59968 | 58.28579 | 38 ft | 4 kts | 39° |
| 2026-05-01 11:41 | 23.59946 | 58.28560 | 36 ft | 4 kts | 39° |
| 2026-05-01 11:41 | 23.59926 | 58.28542 | 35 ft | 4 kts | 41° |
| 2026-05-01 11:41 | 23.59905 | 58.28522 | 35 ft | 4 kts | 38° |
| 2026-05-01 11:42 | 23.59884 | 58.28504 | 37 ft | 4 kts | 33° |
| 2026-05-01 11:42 | 23.59870 | 58.28495 | 37 ft | 0 kts | 32° |
| 2026-05-01 11:47 | 23.59873 | 58.28497 | 37 ft | 4 kts | 29° |
| 2026-05-01 11:47 | 23.59916 | 58.28522 | 34 ft | 0 kts | 26° |
| 2026-05-01 11:47 | 23.59926 | 58.28513 | 37 ft | 3 kts | 296° |
| 2026-05-01 11:47 | 23.59918 | 58.28480 | 38 ft | 8 kts | 239° |
| 2026-05-01 11:48 | 23.59879 | 58.28434 | 37 ft | 8 kts | 227° |
| 2026-05-01 11:48 | 23.59830 | 58.28400 | 38 ft | 8 kts | 182° |
| 2026-05-01 11:48 | 23.59776 | 58.28407 | 38 ft | 8 kts | 173° |
| 2026-05-01 11:48 | 23.59729 | 58.28411 | 39 ft | 6 kts | 175° |
| 2026-05-01 11:49 | 23.59690 | 58.28415 | 39 ft | 6 kts | 173° |
| 2026-05-01 11:49 | 23.59633 | 58.28421 | 38 ft | 10 kts | 176° |
| 2026-05-01 11:49 | 23.59616 | 58.28420 | 39 ft | 0 kts | 198° |
| 2026-05-01 11:49 | 23.59592 | 58.28392 | 36 ft | 8 kts | 227° |
| 2026-05-01 11:50 | 23.59589 | 58.28303 | 39 ft | 0 kts | 300° |
| 2026-05-01 11:50 | 23.59589 | 58.28302 | 38 ft | 1 kts | 293° |
| 2026-05-01 11:50 | 23.59591 | 58.28264 | 39 ft | 6 kts | 261° |
| 2026-05-01 11:51 | 23.59587 | 58.28213 | 39 ft | 11 kts | 265° |
| 2026-05-01 11:51 | 23.59578 | 58.28079 | 39 ft | 21 kts | 264° |
| 2026-05-01 11:51 | 23.59564 | 58.27913 | 40 ft | 23 kts | 265° |
| 2026-05-01 11:51 | 23.59550 | 58.27734 | 40 ft | 24 kts | 264° |
| 2026-05-01 11:52 | 23.59534 | 58.27550 | 40 ft | 25 kts | 265° |
| 2026-05-01 11:52 | 23.59535 | 58.27386 | 40 ft | 5 kts | 283° |
| 2026-05-01 11:52 | 23.59550 | 58.27377 | 40 ft | 3 kts | 353° |
| 2026-05-01 11:52 | 23.59636 | 58.27367 | 40 ft | 17 kts | 354° |
| 2026-05-01 11:53 | 23.59760 | 58.27356 | 40 ft | 19 kts | 356° |
| 2026-05-01 11:53 | 23.59893 | 58.27342 | 39 ft | 20 kts | 355° |
| 2026-05-01 11:53 | 23.60034 | 58.27330 | 40 ft | 21 kts | 355° |
| 2026-05-01 11:53 | 23.60181 | 58.27314 | 40 ft | 21 kts | 351° |
| 2026-05-01 11:54 | 23.60331 | 58.27301 | 40 ft | 22 kts | 355° |
| 2026-05-01 11:54 | 23.60393 | 58.27295 | 40 ft | 2 kts | 355° |
| 2026-05-01 11:54 | 23.60443 | 58.27330 | 39 ft | 12 kts | 69° |
| 2026-05-01 11:54 | 23.60461 | 58.27413 | 39 ft | 12 kts | 82° |
| 2026-05-01 11:55 | 23.60476 | 58.27590 | 39 ft | 29 kts | 85° |
| 2026-05-01 11:55 | 23.60494 | 58.27812 | 38 ft | 30 kts | 85° |
| 2026-05-01 11:55 | 23.60512 | 58.28038 | 38 ft | 30 kts | 85° |
| 2026-05-01 11:55 | 23.60530 | 58.28267 | 38 ft | 31 kts | 85° |
| 2026-05-01 11:56 | 23.60549 | 58.28499 | 38 ft | 31 kts | 85° |
| 2026-05-01 11:56 | 23.60568 | 58.28734 | 37 ft | 31 kts | 84° |
| 2026-05-01 11:56 | 23.60588 | 58.28971 | 37 ft | 31 kts | 88° |
| 2026-05-01 11:56 | 23.60606 | 58.29210 | 36 ft | 32 kts | 85° |
| 2026-05-01 11:57 | 23.60624 | 58.29448 | 36 ft | 30 kts | 85° |
| 2026-05-01 11:57 | 23.60638 | 58.29576 | 34 ft | 9 kts | 70° |
| 2026-05-01 11:57 | 23.60669 | 58.29599 | 35 ft | 5 kts | 13° |
| 2026-05-01 11:57 | 23.60732 | 58.29603 | 34 ft | 14 kts | 357° |
| 2026-05-01 11:58 | 23.60747 | 58.29601 | 35 ft | 0 kts | 352° |
| 2026-05-01 11:58 | 23.60806 | 58.29595 | 34 ft | 10 kts | 355° |
| 2026-05-01 11:59 | 23.60887 | 58.29547 | 35 ft | 15 kts | 295° |
| 2026-05-01 11:59 | 23.60883 | 58.29450 | 35 ft | 0 kts | 263° |
| 2026-05-01 11:59 | 23.60881 | 58.29430 | 36 ft | 21 kts | 263° |
| 2026-05-01 12:00 | 23.60777 | 58.28098 | 36 ft | 144 kts | 265° |
| 2026-05-01 12:00 | 23.60681 | 58.26878 | 193 ft | 174 kts | 267° |
| 2026-05-01 12:00 | 23.60515 | 58.24009 | 1304 ft | 194 kts | 267° |
| 2026-05-01 12:01 | 23.60381 | 58.22488 | 1740 ft | 212 kts | 266° |
| 2026-05-01 12:01 | 23.60232 | 58.20822 | 2121 ft | 232 kts | 266° |
| 2026-05-01 12:01 | 23.60073 | 58.18983 | 2579 ft | 253 kts | 266° |
| 2026-05-01 12:01 | 23.59907 | 58.17058 | 2929 ft | 261 kts | 267° |
| 2026-05-01 12:02 | 23.59738 | 58.15090 | 2997 ft | 261 kts | 267° |
| 2026-05-01 12:02 | 23.59571 | 58.13126 | 3003 ft | 260 kts | 267° |
| 2026-05-01 12:02 | 23.59407 | 58.11164 | 3003 ft | 255 kts | 267° |
| 2026-05-01 12:02 | 23.59246 | 58.09220 | 3012 ft | 273 kts | 267° |
| 2026-05-01 12:03 | 23.58942 | 58.07018 | 3010 ft | 315 kts | 252° |
| 2026-05-01 12:03 | 23.57694 | 58.04904 | 3011 ft | 354 kts | 224° |
| 2026-05-01 12:03 | 23.55494 | 58.03483 | 3015 ft | 386 kts | 198° |
| 2026-05-01 12:03 | 23.52895 | 58.02893 | 4133 ft | 376 kts | 191° |
| 2026-05-01 12:04 | 23.50487 | 58.02431 | 5378 ft | 325 kts | 191° |
| 2026-05-01 12:04 | 23.48437 | 58.02087 | 6738 ft | 284 kts | 184° |
| 2026-05-01 12:04 | 23.46550 | 58.02299 | 8146 ft | 263 kts | 163° |
| 2026-05-01 12:04 | 23.44989 | 58.03099 | 9480 ft | 240 kts | 144° |
| 2026-05-01 12:05 | 23.43726 | 58.04386 | 9807 ft | 260 kts | 122° |
| 2026-05-01 12:05 | 23.42650 | 58.08376 | 10338 ft | 299 kts | 92° |
| 2026-05-01 12:05 | 23.42448 | 58.10722 | 10567 ft | 323 kts | 93° |
| 2026-05-01 12:06 | 23.42233 | 58.13216 | 10777 ft | 347 kts | 91° |
| 2026-05-01 12:06 | 23.42408 | 58.15871 | 11177 ft | 358 kts | 79° |
| 2026-05-01 12:06 | 23.42768 | 58.18576 | 11815 ft | 364 kts | 79° |
| 2026-05-01 12:06 | 23.43132 | 58.21331 | 12452 ft | 371 kts | 80° |
| 2026-05-01 12:07 | 23.43499 | 58.24124 | 13117 ft | 375 kts | 79° |
| 2026-05-01 12:07 | 23.43867 | 58.26953 | 13779 ft | 380 kts | 81° |
| 2026-05-01 12:07 | 23.44238 | 58.29817 | 14402 ft | 385 kts | 81° |
| 2026-05-01 12:07 | 23.44615 | 58.32728 | 14957 ft | 391 kts | 82° |
| 2026-05-01 12:08 | 23.44990 | 58.35636 | 15471 ft | 395 kts | 83° |
| 2026-05-01 12:08 | 23.45374 | 58.38616 | 16033 ft | 399 kts | 82° |
| 2026-05-01 12:08 | 23.45763 | 58.41619 | 16675 ft | 401 kts | 84° |
| 2026-05-01 12:08 | 23.46152 | 58.44625 | 17137 ft | 399 kts | 85° |
| 2026-05-01 12:09 | 23.46540 | 58.47628 | 17688 ft | 402 kts | 85° |
| 2026-05-01 12:09 | 23.46930 | 58.50642 | 18322 ft | 402 kts | 85° |
| 2026-05-01 12:09 | 23.47318 | 58.53661 | 18928 ft | 404 kts | 85° |
| 2026-05-01 12:09 | 23.47702 | 58.56668 | 19396 ft | 408 kts | 85° |
| 2026-05-01 12:10 | 23.48094 | 58.59732 | 20013 ft | 408 kts | 86° |
| 2026-05-01 12:10 | 23.48873 | 58.65772 | 21463 ft | 400 kts | 86° |
| 2026-05-01 12:10 | 23.49256 | 58.68764 | 22101 ft | 397 kts | 86° |
| 2026-05-01 12:11 | 23.50015 | 58.74707 | 23260 ft | 395 kts | 84° |
| 2026-05-01 12:11 | 23.50393 | 58.77664 | 23824 ft | 393 kts | 84° |
| 2026-05-01 12:11 | 23.50768 | 58.80612 | 24357 ft | 393 kts | 83° |
| 2026-05-01 12:12 | 23.51138 | 58.83523 | 24826 ft | 393 kts | 83° |
| 2026-05-01 12:12 | 23.51512 | 58.86475 | 25254 ft | 394 kts | 82° |
| 2026-05-01 12:12 | 23.51887 | 58.89444 | 25659 ft | 396 kts | 82° |
| 2026-05-01 12:12 | 23.52263 | 58.92420 | 26044 ft | 398 kts | 81° |
| 2026-05-01 12:13 | 23.52641 | 58.95416 | 26408 ft | 400 kts | 81° |
| 2026-05-01 12:13 | 23.53019 | 58.98431 | 26757 ft | 403 kts | 81° |
| 2026-05-01 12:13 | 23.53401 | 59.01464 | 27090 ft | 405 kts | 80° |
| 2026-05-01 12:13 | 23.53786 | 59.04515 | 27410 ft | 408 kts | 79° |
| 2026-05-01 12:14 | 23.54170 | 59.07552 | 27711 ft | 411 kts | 79° |
| 2026-05-01 12:14 | 23.54559 | 59.10650 | 28000 ft | 414 kts | 79° |
| 2026-05-01 12:14 | 23.54949 | 59.13773 | 28282 ft | 418 kts | 79° |
| 2026-05-01 12:14 | 23.55337 | 59.16920 | 28545 ft | 421 kts | 79° |
| 2026-05-01 12:15 | 23.55612 | 59.20107 | 28810 ft | 427 kts | 86° |
| 2026-05-01 12:15 | 23.55274 | 59.23349 | 29078 ft | 435 kts | 97° |
| 2026-05-01 12:15 | 23.54671 | 59.26582 | 29348 ft | 437 kts | 97° |
| 2026-05-01 12:15 | 23.54035 | 59.29830 | 29620 ft | 439 kts | 98° |
| 2026-05-01 12:16 | 23.53368 | 59.33090 | 29885 ft | 442 kts | 98° |
| 2026-05-01 12:16 | 23.52680 | 59.36358 | 30147 ft | 444 kts | 98° |
| 2026-05-01 12:16 | 23.51995 | 59.39588 | 30484 ft | 443 kts | 98° |
| 2026-05-01 12:16 | 23.51303 | 59.42855 | 30853 ft | 442 kts | 98° |
| 2026-05-01 12:17 | 23.50615 | 59.46120 | 31208 ft | 441 kts | 98° |
| 2026-05-01 12:17 | 23.49932 | 59.49373 | 31553 ft | 441 kts | 98° |
| 2026-05-01 12:17 | 23.49253 | 59.52624 | 31899 ft | 440 kts | 98° |
| 2026-05-01 12:17 | 23.48575 | 59.55869 | 32235 ft | 439 kts | 98° |
| 2026-05-01 12:18 | 23.47896 | 59.59112 | 32565 ft | 439 kts | 98° |
| 2026-05-01 12:18 | 23.47226 | 59.62302 | 32885 ft | 438 kts | 98° |
| 2026-05-01 12:18 | 23.46544 | 59.65531 | 33207 ft | 437 kts | 98° |
| 2026-05-01 12:18 | 23.45864 | 59.68755 | 33525 ft | 437 kts | 98° |
| 2026-05-01 12:19 | 23.45186 | 59.71977 | 33834 ft | 436 kts | 98° |
| 2026-05-01 12:19 | 23.44510 | 59.75186 | 34139 ft | 435 kts | 98° |
| 2026-05-01 12:19 | 23.43828 | 59.78378 | 34438 ft | 426 kts | 98° |
| 2026-05-01 12:19 | 23.43153 | 59.81474 | 34744 ft | 421 kts | 98° |
| 2026-05-01 12:20 | 23.42485 | 59.84534 | 35037 ft | 421 kts | 98° |
| 2026-05-01 12:20 | 23.41809 | 59.87624 | 35332 ft | 416 kts | 98° |
| 2026-05-01 12:20 | 23.41149 | 59.90621 | 35636 ft | 409 kts | 98° |
| 2026-05-01 12:20 | 23.40599 | 59.93101 | 35873 ft | 399 kts | 98° |